sensor_id;sensor_type;location;lat;lon;timestamp;pressure;altitude;pressure_sealevel;temperature;humidity
54236;BME280;40151;43.606;1.472;2022-12-18T00:01:24;99972.78;;;14.31;56.65
54236;BME280;40151;43.606;1.472;2022-12-18T00:03:51;99976.25;;;14.32;57.03
54236;BME280;40151;43.606;1.472;2022-12-18T00:06:17;99971.91;;;14.31;56.55
54236;BME280;40151;43.606;1.472;2022-12-18T00:08:43;99966.66;;;14.31;56.78
54236;BME280;40151;43.606;1.472;2022-12-18T00:11:15;99957.94;;;14.30;56.71
54236;BME280;40151;43.606;1.472;2022-12-18T00:13:41;99959.69;;;14.30;56.43
54236;BME280;40151;43.606;1.472;2022-12-18T00:16:09;99957.88;;;14.32;56.68
54236;BME280;40151;43.606;1.472;2022-12-18T00:18:35;99952.72;;;14.29;56.57
54236;BME280;40151;43.606;1.472;2022-12-18T00:21:04;99949.19;;;14.30;56.70
54236;BME280;40151;43.606;1.472;2022-12-18T00:23:31;99952.72;;;14.29;56.46
54236;BME280;40151;43.606;1.472;2022-12-18T00:26:05;99954.50;;;14.27;56.41
54236;BME280;40151;43.606;1.472;2022-12-18T00:28:31;99957.13;;;14.27;56.46
54236;BME280;40151;43.606;1.472;2022-12-18T00:31:08;99954.59;;;14.23;56.39
54236;BME280;40151;43.606;1.472;2022-12-18T00:33:34;99964.16;;;14.26;56.42
54236;BME280;40151;43.606;1.472;2022-12-18T00:36:06;99959.84;;;14.23;56.63
54236;BME280;40151;43.606;1.472;2022-12-18T00:38:32;99958.97;;;14.23;56.43
54236;BME280;40151;43.606;1.472;2022-12-18T00:40:58;99955.50;;;14.22;56.45
54236;BME280;40151;43.606;1.472;2022-12-18T00:43:23;99958.13;;;14.22;56.41
54236;BME280;40151;43.606;1.472;2022-12-18T00:45:49;99956.44;;;14.20;56.39
54236;BME280;40151;43.606;1.472;2022-12-18T00:48:14;99951.16;;;14.21;56.45
54236;BME280;40151;43.606;1.472;2022-12-18T00:50:40;99959.91;;;14.20;56.40
54236;BME280;40151;43.606;1.472;2022-12-18T00:53:05;99956.41;;;14.21;56.49
54236;BME280;40151;43.606;1.472;2022-12-18T00:55:31;99958.19;;;14.19;56.18
54236;BME280;40151;43.606;1.472;2022-12-18T00:57:57;99960.81;;;14.19;56.54
54236;BME280;40151;43.606;1.472;2022-12-18T01:00:22;99968.69;;;14.19;56.33
54236;BME280;40151;43.606;1.472;2022-12-18T01:02:48;99979.19;;;14.19;56.55
54236;BME280;40151;43.606;1.472;2022-12-18T01:05:14;99983.63;;;14.17;56.43
54236;BME280;40151;43.606;1.472;2022-12-18T01:07:40;99986.25;;;14.17;56.40
54236;BME280;40151;43.606;1.472;2022-12-18T01:10:06;99995.84;;;14.18;56.19
54236;BME280;40151;43.606;1.472;2022-12-18T01:12:33;99998.53;;;14.15;56.53
54236;BME280;40151;43.606;1.472;2022-12-18T01:14:58;100005.53;;;14.16;56.39
54236;BME280;40151;43.606;1.472;2022-12-18T01:17:24;100000.19;;;14.19;56.22
54236;BME280;40151;43.606;1.472;2022-12-18T01:19:49;100009.91;;;14.16;56.47
54236;BME280;40151;43.606;1.472;2022-12-18T01:22:15;100017.75;;;14.17;56.52
54236;BME280;40151;43.606;1.472;2022-12-18T01:24:40;100010.78;;;14.16;56.54
54236;BME280;40151;43.606;1.472;2022-12-18T01:27:06;100006.44;;;14.15;56.37
54236;BME280;40151;43.606;1.472;2022-12-18T01:29:31;100015.22;;;14.13;56.30
54236;BME280;40151;43.606;1.472;2022-12-18T01:31:57;100017.78;;;14.14;56.59
54236;BME280;40151;43.606;1.472;2022-12-18T01:34:23;100019.53;;;14.15;56.30
54236;BME280;40151;43.606;1.472;2022-12-18T01:36:49;100018.69;;;14.13;56.39
54236;BME280;40151;43.606;1.472;2022-12-18T01:39:18;100024.81;;;14.14;56.51
54236;BME280;40151;43.606;1.472;2022-12-18T01:41:44;100026.56;;;14.13;56.34
54236;BME280;40151;43.606;1.472;2022-12-18T01:45:00;100043.22;;;14.12;56.66
54236;BME280;40151;43.606;1.472;2022-12-18T01:49:51;100033.63;;;14.11;56.40
54236;BME280;40151;43.606;1.472;2022-12-18T01:52:18;100024.84;;;14.12;56.41
54236;BME280;40151;43.606;1.472;2022-12-18T01:54:46;100026.66;;;14.10;56.51
54236;BME280;40151;43.606;1.472;2022-12-18T01:57:12;100028.41;;;14.09;56.42
54236;BME280;40151;43.606;1.472;2022-12-18T01:59:38;100028.44;;;14.08;56.48
54236;BME280;40151;43.606;1.472;2022-12-18T02:02:06;100027.59;;;14.07;56.45
54236;BME280;40151;43.606;1.472;2022-12-18T02:04:32;100037.19;;;14.08;56.51
54236;BME280;40151;43.606;1.472;2022-12-18T02:07:05;100047.72;;;14.07;56.32
54236;BME280;40151;43.606;1.472;2022-12-18T02:09:50;100052.06;;;14.08;56.46
54236;BME280;40151;43.606;1.472;2022-12-18T02:12:19;100057.31;;;14.08;56.50
54236;BME280;40151;43.606;1.472;2022-12-18T02:19:47;100052.97;;;14.07;56.35
54236;BME280;40151;43.606;1.472;2022-12-18T02:22:26;100049.53;;;14.05;56.33
54236;BME280;40151;43.606;1.472;2022-12-18T02:27:18;100061.72;;;14.06;56.44
54236;BME280;40151;43.606;1.472;2022-12-18T02:29:52;100060.84;;;14.05;56.33
54236;BME280;40151;43.606;1.472;2022-12-18T02:32:26;100064.41;;;14.03;56.26
54236;BME280;40151;43.606;1.472;2022-12-18T02:34:54;100067.03;;;14.03;56.26
54236;BME280;40151;43.606;1.472;2022-12-18T02:37:21;100060.16;;;13.99;56.29
54236;BME280;40151;43.606;1.472;2022-12-18T02:39:49;100067.97;;;14.00;56.30
54236;BME280;40151;43.606;1.472;2022-12-18T02:42:17;100071.47;;;14.01;56.30
54236;BME280;40151;43.606;1.472;2022-12-18T02:44:49;100070.66;;;13.99;56.18
54236;BME280;40151;43.606;1.472;2022-12-18T02:47:18;100070.66;;;13.99;56.44
54236;BME280;40151;43.606;1.472;2022-12-18T02:55:18;100067.16;;;13.96;56.45
54236;BME280;40151;43.606;1.472;2022-12-18T03:00:41;100069.78;;;13.96;56.24
54236;BME280;40151;43.606;1.472;2022-12-18T03:03:16;100065.44;;;13.95;56.45
54236;BME280;40151;43.606;1.472;2022-12-18T03:05:49;100057.66;;;13.92;56.38
54236;BME280;40151;43.606;1.472;2022-12-18T03:08:28;100050.59;;;13.96;56.33
54236;BME280;40151;43.606;1.472;2022-12-18T03:11:02;100057.59;;;13.94;56.38
54236;BME280;40151;43.606;1.472;2022-12-18T03:13:34;100054.97;;;13.95;56.29
54236;BME280;40151;43.606;1.472;2022-12-18T03:16:03;100053.22;;;13.94;56.24
54236;BME280;40151;43.606;1.472;2022-12-18T03:18:38;100056.75;;;13.93;56.21
54236;BME280;40151;43.606;1.472;2022-12-18T03:21:09;100048.03;;;13.91;56.30
54236;BME280;40151;43.606;1.472;2022-12-18T03:23:42;100043.66;;;13.92;56.21
54236;BME280;40151;43.606;1.472;2022-12-18T03:26:12;100048.91;;;13.92;56.17
54236;BME280;40151;43.606;1.472;2022-12-18T03:28:46;100041.16;;;13.87;56.21
54236;BME280;40151;43.606;1.472;2022-12-18T03:31:13;100039.34;;;13.89;55.99
54236;BME280;40151;43.606;1.472;2022-12-18T03:33:47;100030.69;;;13.86;56.30
54236;BME280;40151;43.606;1.472;2022-12-18T03:36:16;100030.66;;;13.87;56.04
54236;BME280;40151;43.606;1.472;2022-12-18T03:38:42;100027.13;;;13.88;56.10
54236;BME280;40151;43.606;1.472;2022-12-18T03:44:00;100016.69;;;13.85;56.07
54236;BME280;40151;43.606;1.472;2022-12-18T03:46:54;100021.13;;;13.83;55.74
54236;BME280;40151;43.606;1.472;2022-12-18T03:49:47;100018.44;;;13.86;55.94
54236;BME280;40151;43.606;1.472;2022-12-18T03:52:22;100015.06;;;13.81;55.71
54236;BME280;40151;43.606;1.472;2022-12-18T03:54:51;100014.22;;;13.79;55.97
54236;BME280;40151;43.606;1.472;2022-12-18T03:57:22;100011.56;;;13.80;55.93
54236;BME280;40151;43.606;1.472;2022-12-18T03:59:52;100020.31;;;13.81;55.85
54236;BME280;40151;43.606;1.472;2022-12-18T04:02:20;100021.16;;;13.81;55.83
54236;BME280;40151;43.606;1.472;2022-12-18T04:04:48;100017.72;;;13.78;55.96
54236;BME280;40151;43.606;1.472;2022-12-18T04:07:16;100016.88;;;13.77;56.01
54236;BME280;40151;43.606;1.472;2022-12-18T04:09:43;100009.03;;;13.76;55.64
54236;BME280;40151;43.606;1.472;2022-12-18T04:12:10;100006.41;;;13.76;55.61
54236;BME280;40151;43.606;1.472;2022-12-18T04:14:36;100000.28;;;13.77;55.67
54236;BME280;40151;43.606;1.472;2022-12-18T04:17:02;100004.63;;;13.78;55.80
54236;BME280;40151;43.606;1.472;2022-12-18T04:19:28;100003.81;;;13.76;55.66
54236;BME280;40151;43.606;1.472;2022-12-18T04:21:53;100005.53;;;13.75;55.54
54236;BME280;40151;43.606;1.472;2022-12-18T04:24:19;100003.03;;;13.71;55.78
54236;BME280;40151;43.606;1.472;2022-12-18T04:26:45;100003.81;;;13.74;55.82
54236;BME280;40151;43.606;1.472;2022-12-18T04:29:11;99996.03;;;13.71;55.50
54236;BME280;40151;43.606;1.472;2022-12-18T04:31:36;99996.88;;;13.72;55.86
54236;BME280;40151;43.606;1.472;2022-12-18T04:34:01;99997.78;;;13.71;55.75
54236;BME280;40151;43.606;1.472;2022-12-18T04:36:27;99997.78;;;13.71;55.47
54236;BME280;40151;43.606;1.472;2022-12-18T04:38:52;99998.69;;;13.69;55.63
54236;BME280;40151;43.606;1.472;2022-12-18T04:41:18;99996.13;;;13.66;55.58
54236;BME280;40151;43.606;1.472;2022-12-18T04:43:43;100003.09;;;13.67;55.70
54236;BME280;40151;43.606;1.472;2022-12-18T04:46:09;100000.47;;;13.67;55.78
54236;BME280;40151;43.606;1.472;2022-12-18T04:48:35;100011.84;;;13.66;55.58
54236;BME280;40151;43.606;1.472;2022-12-18T04:51:00;100015.28;;;13.70;55.57
54236;BME280;40151;43.606;1.472;2022-12-18T04:53:26;100012.72;;;13.67;55.60
54236;BME280;40151;43.606;1.472;2022-12-18T04:56:03;100011.94;;;13.63;55.71
54236;BME280;40151;43.606;1.472;2022-12-18T04:58:28;100011.94;;;13.63;55.83
54236;BME280;40151;43.606;1.472;2022-12-18T05:00:54;100013.66;;;13.64;55.69
54236;BME280;40151;43.606;1.472;2022-12-18T05:03:19;100027.63;;;13.65;55.61
54236;BME280;40151;43.606;1.472;2022-12-18T05:05:44;100027.66;;;13.63;55.54
54236;BME280;40151;43.606;1.472;2022-12-18T05:08:10;100029.50;;;13.60;55.80
54236;BME280;40151;43.606;1.472;2022-12-18T05:10:35;100043.47;;;13.60;55.60
54236;BME280;40151;43.606;1.472;2022-12-18T05:13:01;100046.06;;;13.62;55.58
54236;BME280;40151;43.606;1.472;2022-12-18T05:15:30;100048.69;;;13.62;55.76
54236;BME280;40151;43.606;1.472;2022-12-18T05:17:57;100047.84;;;13.60;55.77
54236;BME280;40151;43.606;1.472;2022-12-18T05:20:24;100057.47;;;13.59;55.81
54236;BME280;40151;43.606;1.472;2022-12-18T05:22:50;100060.09;;;13.59;55.87
54236;BME280;40151;43.606;1.472;2022-12-18T05:25:16;100066.22;;;13.60;55.67
54236;BME280;40151;43.606;1.472;2022-12-18T05:27:42;100073.19;;;13.59;55.63
54236;BME280;40151;43.606;1.472;2022-12-18T05:30:08;100067.97;;;13.59;55.97
54236;BME280;40151;43.606;1.472;2022-12-18T05:32:34;100068.00;;;13.56;55.88
54236;BME280;40151;43.606;1.472;2022-12-18T05:34:59;100073.19;;;13.59;55.74
54236;BME280;40151;43.606;1.472;2022-12-18T05:37:25;100072.38;;;13.57;55.95
54236;BME280;40151;43.606;1.472;2022-12-18T05:39:50;100075.84;;;13.58;55.92
54236;BME280;40151;43.606;1.472;2022-12-18T05:42:16;100078.50;;;13.56;55.74
54236;BME280;40151;43.606;1.472;2022-12-18T05:44:41;100074.16;;;13.55;55.76
54236;BME280;40151;43.606;1.472;2022-12-18T05:47:08;100084.63;;;13.56;55.87
54236;BME280;40151;43.606;1.472;2022-12-18T05:49:33;100087.25;;;13.55;55.79
54236;BME280;40151;43.606;1.472;2022-12-18T05:51:59;100085.53;;;13.54;55.67
54236;BME280;40151;43.606;1.472;2022-12-18T05:54:27;100089.97;;;13.52;55.75
54236;BME280;40151;43.606;1.472;2022-12-18T05:56:52;100088.16;;;13.54;55.94
54236;BME280;40151;43.606;1.472;2022-12-18T05:59:19;100082.09;;;13.52;55.90
54236;BME280;40151;43.606;1.472;2022-12-18T06:01:45;100080.28;;;13.54;55.85
54236;BME280;40151;43.606;1.472;2022-12-18T06:04:10;100068.09;;;13.53;55.74
54236;BME280;40151;43.606;1.472;2022-12-18T06:06:35;100080.28;;;13.54;55.86
54236;BME280;40151;43.606;1.472;2022-12-18T06:09:02;100075.06;;;13.54;55.69
54236;BME280;40151;43.606;1.472;2022-12-18T06:11:34;100080.28;;;13.54;55.91
54236;BME280;40151;43.606;1.472;2022-12-18T06:14:00;100083.88;;;13.50;55.74
54236;BME280;40151;43.606;1.472;2022-12-18T06:16:27;100070.72;;;13.51;55.93
54236;BME280;40151;43.606;1.472;2022-12-18T06:18:53;100078.63;;;13.50;55.88
54236;BME280;40151;43.606;1.472;2022-12-18T06:21:18;100087.34;;;13.52;55.98
54236;BME280;40151;43.606;1.472;2022-12-18T06:23:44;100096.09;;;13.51;55.99
54236;BME280;40151;43.606;1.472;2022-12-18T06:26:11;100091.78;;;13.48;55.92
54236;BME280;40151;43.606;1.472;2022-12-18T06:28:37;100092.63;;;13.49;55.95
54236;BME280;40151;43.606;1.472;2022-12-18T06:31:03;100086.47;;;13.50;55.77
54236;BME280;40151;43.606;1.472;2022-12-18T06:33:29;100084.78;;;13.47;55.89
54236;BME280;40151;43.606;1.472;2022-12-18T06:36:00;100098.78;;;13.48;55.98
54236;BME280;40151;43.606;1.472;2022-12-18T06:38:26;100090.03;;;13.47;55.95
54236;BME280;40151;43.606;1.472;2022-12-18T06:40:52;100098.78;;;13.48;56.13
54236;BME280;40151;43.606;1.472;2022-12-18T06:43:17;100092.66;;;13.46;55.85
54236;BME280;40151;43.606;1.472;2022-12-18T06:45:43;100097.91;;;13.46;55.73
54236;BME280;40151;43.606;1.472;2022-12-18T06:48:08;100096.19;;;13.45;55.99
54236;BME280;40151;43.606;1.472;2022-12-18T06:50:33;100094.44;;;13.43;55.72
54236;BME280;40151;43.606;1.472;2022-12-18T06:52:59;100099.69;;;13.43;55.89
54236;BME280;40151;43.606;1.472;2022-12-18T06:55:25;100095.31;;;13.44;55.84
54236;BME280;40151;43.606;1.472;2022-12-18T06:57:51;100088.31;;;13.45;55.92
54236;BME280;40151;43.606;1.472;2022-12-18T07:00:16;100092.72;;;13.42;55.78
54236;BME280;40151;43.606;1.472;2022-12-18T07:02:42;100082.22;;;13.42;55.71
54236;BME280;40151;43.606;1.472;2022-12-18T07:05:07;100085.75;;;13.41;55.87
54236;BME280;40151;43.606;1.472;2022-12-18T07:07:34;100074.38;;;13.41;55.83
54236;BME280;40151;43.606;1.472;2022-12-18T07:10:00;100088.34;;;13.43;56.04
54236;BME280;40151;43.606;1.472;2022-12-18T07:12:27;100087.53;;;13.39;55.80
54236;BME280;40151;43.606;1.472;2022-12-18T07:14:52;100085.75;;;13.41;55.86
54236;BME280;40151;43.606;1.472;2022-12-18T07:17:17;100078.78;;;13.40;55.88
54236;BME280;40151;43.606;1.472;2022-12-18T07:19:43;100079.69;;;13.39;55.74
54236;BME280;40151;43.606;1.472;2022-12-18T07:22:08;100078.78;;;13.40;55.79
54236;BME280;40151;43.606;1.472;2022-12-18T07:24:34;100072.69;;;13.38;55.58
54236;BME280;40151;43.606;1.472;2022-12-18T07:27:00;100070.13;;;13.37;55.91
54236;BME280;40151;43.606;1.472;2022-12-18T07:29:25;100062.28;;;13.35;55.63
54236;BME280;40151;43.606;1.472;2022-12-18T07:31:50;100058.75;;;13.36;55.63
54236;BME280;40151;43.606;1.472;2022-12-18T07:34:16;100054.47;;;13.32;55.56
54236;BME280;40151;43.606;1.472;2022-12-18T07:36:42;100065.78;;;13.34;55.62
54236;BME280;40151;43.606;1.472;2022-12-18T07:39:07;100073.59;;;13.37;55.70
54236;BME280;40151;43.606;1.472;2022-12-18T07:41:33;100081.53;;;13.33;55.92
54236;BME280;40151;43.606;1.472;2022-12-18T07:43:58;100082.44;;;13.33;55.78
54236;BME280;40151;43.606;1.472;2022-12-18T07:46:24;100075.44;;;13.32;55.76
54236;BME280;40151;43.606;1.472;2022-12-18T07:48:49;100078.03;;;13.34;55.75
54236;BME280;40151;43.606;1.472;2022-12-18T07:51:15;100071.06;;;13.33;55.63
54236;BME280;40151;43.606;1.472;2022-12-18T07:53:41;100080.66;;;13.32;55.71
54236;BME280;40151;43.606;1.472;2022-12-18T07:56:09;100080.66;;;13.32;55.55
54236;BME280;40151;43.606;1.472;2022-12-18T07:58:35;100090.31;;;13.32;55.52
54236;BME280;40151;43.606;1.472;2022-12-18T08:01:05;100089.50;;;13.29;55.71
54236;BME280;40151;43.606;1.472;2022-12-18T08:03:31;100094.75;;;13.28;55.70
54236;BME280;40151;43.606;1.472;2022-12-18T08:06:01;100101.72;;;13.29;55.74
54236;BME280;40151;43.606;1.472;2022-12-18T08:08:28;100112.22;;;13.27;55.76
54236;BME280;40151;43.606;1.472;2022-12-18T08:10:53;100109.50;;;13.32;55.64
54236;BME280;40151;43.606;1.472;2022-12-18T08:13:19;100110.41;;;13.31;55.63
54236;BME280;40151;43.606;1.472;2022-12-18T08:15:44;100108.75;;;13.27;55.82
54236;BME280;40151;43.606;1.472;2022-12-18T08:18:09;100103.44;;;13.30;55.43
54236;BME280;40151;43.606;1.472;2022-12-18T08:20:35;100100.84;;;13.28;55.72
54236;BME280;40151;43.606;1.472;2022-12-18T08:23:00;100101.72;;;13.29;55.65
54236;BME280;40151;43.606;1.472;2022-12-18T08:25:26;100093.88;;;13.27;55.66
54236;BME280;40151;43.606;1.472;2022-12-18T08:27:51;100099.97;;;13.29;55.66
54236;BME280;40151;43.606;1.472;2022-12-18T08:30:17;100096.50;;;13.26;55.76
54236;BME280;40151;43.606;1.472;2022-12-18T08:32:42;100103.56;;;13.24;55.80
54236;BME280;40151;43.606;1.472;2022-12-18T08:35:08;100108.75;;;13.27;55.63
54236;BME280;40151;43.606;1.472;2022-12-18T08:37:33;100098.28;;;13.27;55.83
54236;BME280;40151;43.606;1.472;2022-12-18T08:39:59;100080.78;;;13.26;55.41
54236;BME280;40151;43.606;1.472;2022-12-18T08:42:25;100080.75;;;13.29;55.57
54236;BME280;40151;43.606;1.472;2022-12-18T08:45:09;100078.16;;;13.26;55.65
54236;BME280;40151;43.606;1.472;2022-12-18T08:47:34;100091.28;;;13.26;55.42
54236;BME280;40151;43.606;1.472;2022-12-18T08:50:00;100091.28;;;13.26;55.64
54236;BME280;40151;43.606;1.472;2022-12-18T08:52:25;100082.53;;;13.27;55.51
54236;BME280;40151;43.606;1.472;2022-12-18T08:54:50;100079.06;;;13.25;55.49
54236;BME280;40151;43.606;1.472;2022-12-18T08:57:16;100086.94;;;13.25;55.55
54236;BME280;40151;43.606;1.472;2022-12-18T08:59:41;100080.84;;;13.23;55.56
54236;BME280;40151;43.606;1.472;2022-12-18T09:02:11;100090.44;;;13.24;55.61
54236;BME280;40151;43.606;1.472;2022-12-18T09:04:37;100096.59;;;13.23;55.50
54236;BME280;40151;43.606;1.472;2022-12-18T09:07:02;100093.97;;;13.23;55.44
54236;BME280;40151;43.606;1.472;2022-12-18T09:09:27;100098.38;;;13.21;55.39
54236;BME280;40151;43.606;1.472;2022-12-18T09:11:53;100096.63;;;13.20;55.46
54236;BME280;40151;43.606;1.472;2022-12-18T09:14:18;100096.63;;;13.20;55.65
54236;BME280;40151;43.606;1.472;2022-12-18T09:16:44;100093.13;;;13.21;55.46
54236;BME280;40151;43.606;1.472;2022-12-18T09:19:10;100096.59;;;13.23;55.54
54236;BME280;40151;43.606;1.472;2022-12-18T09:21:35;100099.22;;;13.21;55.56
54236;BME280;40151;43.606;1.472;2022-12-18T09:24:01;100094.00;;;13.21;55.65
54236;BME280;40151;43.606;1.472;2022-12-18T09:26:26;100094.88;;;13.22;55.52
54236;BME280;40151;43.606;1.472;2022-12-18T09:28:52;100106.25;;;13.19;55.65
54236;BME280;40151;43.606;1.472;2022-12-18T09:31:20;100096.63;;;13.20;55.60
54236;BME280;40151;43.606;1.472;2022-12-18T09:33:46;100097.47;;;13.22;55.60
54236;BME280;40151;43.606;1.472;2022-12-18T09:36:13;100103.63;;;13.21;55.64
54236;BME280;40151;43.606;1.472;2022-12-18T09:38:39;100100.16;;;13.19;56.04
54236;BME280;40151;43.606;1.472;2022-12-18T09:46:47;100077.38;;;13.22;55.84
54236;BME280;40151;43.606;1.472;2022-12-18T09:49:17;100082.66;;;13.21;55.92
54236;BME280;40151;43.606;1.472;2022-12-18T09:51:54;100074.75;;;13.22;55.91
54236;BME280;40151;43.606;1.472;2022-12-18T09:54:26;100075.63;;;13.23;55.89
54236;BME280;40151;43.606;1.472;2022-12-18T09:56:51;100070.41;;;13.20;56.17
54236;BME280;40151;43.606;1.472;2022-12-18T09:59:22;100078.25;;;13.21;56.01
54236;BME280;40151;43.606;1.472;2022-12-18T10:01:49;100076.53;;;13.20;56.22
54236;BME280;40151;43.606;1.472;2022-12-18T10:04:14;100075.66;;;13.20;56.28
54236;BME280;40151;43.606;1.472;2022-12-18T10:06:49;100079.13;;;13.22;56.22
54236;BME280;40151;43.606;1.472;2022-12-18T10:09:27;100088.72;;;13.23;56.16
54236;BME280;40151;43.606;1.472;2022-12-18T10:12:13;100083.53;;;13.20;56.39
54236;BME280;40151;43.606;1.472;2022-12-18T10:14:56;100094.88;;;13.22;56.48
54236;BME280;40151;43.606;1.472;2022-12-18T10:23:08;100098.31;;;13.24;56.33
54236;BME280;40151;43.606;1.472;2022-12-18T10:28:20;100098.31;;;13.24;56.50
54236;BME280;40151;43.606;1.472;2022-12-18T10:30:46;100096.50;;;13.26;56.46
54236;BME280;40151;43.606;1.472;2022-12-18T10:33:18;100101.75;;;13.26;56.54
54236;BME280;40151;43.606;1.472;2022-12-18T10:35:45;100108.78;;;13.25;56.69
54236;BME280;40151;43.606;1.472;2022-12-18T10:40:54;100106.16;;;13.25;56.72
54236;BME280;40151;43.606;1.472;2022-12-18T10:46:11;100103.44;;;13.30;56.64
54236;BME280;40151;43.606;1.472;2022-12-18T10:51:31;100102.59;;;13.29;56.65
54236;BME280;40151;43.606;1.472;2022-12-18T10:56:31;100098.19;;;13.30;56.95
54236;BME280;40151;43.606;1.472;2022-12-18T10:59:04;100105.22;;;13.29;56.84
54236;BME280;40151;43.606;1.472;2022-12-18T11:01:53;100099.91;;;13.31;56.71
54236;BME280;40151;43.606;1.472;2022-12-18T11:04:27;100095.56;;;13.30;56.99
54236;BME280;40151;43.606;1.472;2022-12-18T11:09:24;100085.03;;;13.33;56.92
54236;BME280;40151;43.606;1.472;2022-12-18T11:11:53;100076.28;;;13.34;56.89
54236;BME280;40151;43.606;1.472;2022-12-18T11:14:31;100091.22;;;13.29;56.95
54236;BME280;40151;43.606;1.472;2022-12-18T11:16:59;100072.78;;;13.34;56.84
54236;BME280;40151;43.606;1.472;2022-12-18T11:19:37;100082.44;;;13.33;57.03
54236;BME280;40151;43.606;1.472;2022-12-18T11:22:20;100072.75;;;13.35;56.94
54236;BME280;40151;43.606;1.472;2022-12-18T11:24:59;100062.25;;;13.37;57.02
54236;BME280;40151;43.606;1.472;2022-12-18T11:27:26;100071.88;;;13.36;56.88
54236;BME280;40151;43.606;1.472;2022-12-18T11:30:12;100057.03;;;13.35;57.11
54236;BME280;40151;43.606;1.472;2022-12-18T11:32:47;100035.16;;;13.36;57.19
54236;BME280;40151;43.606;1.472;2022-12-18T11:35:18;100024.69;;;13.36;57.19
54236;BME280;40151;43.606;1.472;2022-12-18T11:37:54;100013.34;;;13.36;57.09
54236;BME280;40151;43.606;1.472;2022-12-18T11:40:43;100012.38;;;13.38;57.18
54236;BME280;40151;43.606;1.472;2022-12-18T11:43:15;100017.72;;;13.35;57.28
54236;BME280;40151;43.606;1.472;2022-12-18T11:46:06;100001.03;;;13.39;57.28
54236;BME280;40151;43.606;1.472;2022-12-18T11:48:43;100000.16;;;13.39;57.22
54236;BME280;40151;43.606;1.472;2022-12-18T11:51:15;99998.34;;;13.42;56.91
54236;BME280;40151;43.606;1.472;2022-12-18T11:53:44;100007.09;;;13.41;57.25
54236;BME280;40151;43.606;1.472;2022-12-18T11:56:46;100001.84;;;13.41;57.17
54236;BME280;40151;43.606;1.472;2022-12-18T12:01:59;100013.22;;;13.42;57.25
54236;BME280;40151;43.606;1.472;2022-12-18T12:16:03;100004.44;;;13.43;57.51
54236;BME280;40151;43.606;1.472;2022-12-18T12:26:45;100002.66;;;13.47;57.39
54236;BME280;40151;43.606;1.472;2022-12-18T12:40:14;99986.84;;;13.50;57.36
54236;BME280;40151;43.606;1.472;2022-12-18T12:42:47;99988.59;;;13.51;57.51
54236;BME280;40151;43.606;1.472;2022-12-18T12:51:18;99984.19;;;13.53;57.38
54236;BME280;40151;43.606;1.472;2022-12-18T12:53:44;99981.56;;;13.53;57.47
54236;BME280;40151;43.606;1.472;2022-12-18T12:56:13;99975.41;;;13.54;57.60
54236;BME280;40151;43.606;1.472;2022-12-18T12:58:56;99980.66;;;13.54;57.50
54236;BME280;40151;43.606;1.472;2022-12-18T13:04:34;99983.22;;;13.57;57.46
54236;BME280;40151;43.606;1.472;2022-12-18T13:07:12;99982.31;;;13.58;57.51
54236;BME280;40151;43.606;1.472;2022-12-18T13:12:35;100000.69;;;13.56;57.71
54236;BME280;40151;43.606;1.472;2022-12-18T13:25:51;99996.25;;;13.60;57.77
54236;BME280;40151;43.606;1.472;2022-12-18T13:28:21;99989.25;;;13.62;57.46
54236;BME280;40151;43.606;1.472;2022-12-18T13:30:53;99996.19;;;13.63;57.45
54236;BME280;40151;43.606;1.472;2022-12-18T13:35:53;99998.78;;;13.65;57.33
54236;BME280;40151;43.606;1.472;2022-12-18T13:41:26;99984.78;;;13.66;57.69
54236;BME280;40151;43.606;1.472;2022-12-18T13:43:56;99997.84;;;13.67;57.52
54236;BME280;40151;43.606;1.472;2022-12-18T13:46:45;100001.38;;;13.66;57.75
54236;BME280;40151;43.606;1.472;2022-12-18T13:51:43;99996.06;;;13.69;57.41
54236;BME280;40151;43.606;1.472;2022-12-18T13:56:52;99995.16;;;13.71;57.57
54236;BME280;40151;43.606;1.472;2022-12-18T14:01:45;99997.72;;;13.74;57.51
54236;BME280;40151;43.606;1.472;2022-12-18T14:04:18;99991.63;;;13.72;57.55
54236;BME280;40151;43.606;1.472;2022-12-18T14:06:43;99984.66;;;13.72;57.67
54236;BME280;40151;43.606;1.472;2022-12-18T14:09:16;99972.44;;;13.71;57.79
54236;BME280;40151;43.606;1.472;2022-12-18T14:11:49;99977.69;;;13.71;57.60
54236;BME280;40151;43.606;1.472;2022-12-18T14:14:16;99986.41;;;13.72;57.72
54236;BME280;40151;43.606;1.472;2022-12-18T14:16:42;99983.78;;;13.72;57.76
54236;BME280;40151;43.606;1.472;2022-12-18T14:19:14;99985.50;;;13.73;57.54
54236;BME280;40151;43.606;1.472;2022-12-18T14:21:45;99990.69;;;13.76;57.64
54236;BME280;40151;43.606;1.472;2022-12-18T14:24:20;99979.31;;;13.75;57.68
54236;BME280;40151;43.606;1.472;2022-12-18T14:26:49;99984.56;;;13.75;57.57
54236;BME280;40151;43.606;1.472;2022-12-18T14:29:20;99981.91;;;13.77;57.54
54236;BME280;40151;43.606;1.472;2022-12-18T14:31:46;99978.38;;;13.78;57.70
54236;BME280;40151;43.606;1.472;2022-12-18T14:34:16;99955.72;;;13.75;57.83
54236;BME280;40151;43.606;1.472;2022-12-18T14:36:51;99967.91;;;13.78;57.79
54236;BME280;40151;43.606;1.472;2022-12-18T14:39:17;99962.66;;;13.78;57.85
54236;BME280;40151;43.606;1.472;2022-12-18T14:41:43;99966.16;;;13.78;57.84
54236;BME280;40151;43.606;1.472;2022-12-18T14:44:12;99970.50;;;13.79;57.58
54236;BME280;40151;43.606;1.472;2022-12-18T14:46:45;99967.88;;;13.79;57.80
54236;BME280;40151;43.606;1.472;2022-12-18T14:49:22;99993.16;;;13.82;57.67
54236;BME280;40151;43.606;1.472;2022-12-18T14:51:54;99995.78;;;13.82;57.71
54236;BME280;40151;43.606;1.472;2022-12-18T14:54:21;99997.59;;;13.80;57.86
54236;BME280;40151;43.606;1.472;2022-12-18T14:57:23;99998.41;;;13.82;57.67
54236;BME280;40151;43.606;1.472;2022-12-18T14:59:50;100008.00;;;13.83;57.62